Time;durP1;ratioP1;P1;durP2;ratioP2;P2;SDS_P1;SDS_P2;PMS_P1;PMS_P2;Temp;Humidity;BMP_temperature;BMP_pressure;BME280_temperature;BME280_humidity;BME280_pressure;Samples;Min_cycle;Max_cycle;Signal;HPM_P1;HPM_P2
2021/08/03 00:01:40;;;;;;;1.73;1.63;;;12.40;99.90;;;;;;4994817;28;20171;-70
2021/08/03 00:04:17;;;;;;;1.67;1.57;;;12.30;99.90;;;;;;4994843;28;20501;-70
2021/08/03 00:06:54;;;;;;;1.73;1.43;;;12.30;99.90;;;;;;4994824;28;20867;-70
2021/08/03 00:09:21;;;;;;;1.50;1.40;;;12.30;99.90;;;;;;4994820;28;20406;-70
2021/08/03 00:11:47;;;;;;;1.47;1.40;;;12.30;99.90;;;;;;4994785;28;20769;-70
2021/08/03 00:14:13;;;;;;;4.63;2.80;;;12.20;99.90;;;;;;4994743;28;20494;-70
2021/08/03 00:16:41;;;;;;;4.03;3.60;;;12.20;99.90;;;;;;4994627;28;20406;-70
2021/08/03 00:19:08;;;;;;;2.50;2.17;;;12.20;99.90;;;;;;4994663;28;20434;-70
2021/08/03 00:21:35;;;;;;;1.60;1.50;;;12.10;99.90;;;;;;4994658;28;20406;-70
2021/08/03 00:24:02;;;;;;;3.40;1.50;;;12.00;99.90;;;;;;4994486;28;20787;-70
2021/08/03 00:26:28;;;;;;;1.50;1.40;;;12.00;99.90;;;;;;4994544;28;20411;-70
2021/08/03 00:28:54;;;;;;;1.90;1.43;;;11.90;99.90;;;;;;4994460;28;20545;-70
2021/08/03 00:31:23;;;;;;;3.70;1.40;;;11.80;99.90;;;;;;4994455;28;20399;-70
2021/08/03 00:33:52;;;;;;;1.43;1.33;;;11.90;99.90;;;;;;4994710;28;20891;-69
2021/08/03 00:36:19;;;;;;;1.60;1.50;;;11.80;99.90;;;;;;4994397;28;20407;-70
2021/08/03 00:38:45;;;;;;;1.37;1.33;;;11.70;99.90;;;;;;4994675;28;20883;-69
2021/08/03 00:41:19;;;;;;;1.73;1.63;;;11.70;99.90;;;;;;4994584;28;20402;-70
2021/08/03 00:43:45;;;;;;;1.70;1.60;;;11.80;99.90;;;;;;4994229;28;20185;-70
2021/08/03 00:46:10;;;;;;;1.93;1.83;;;11.80;99.90;;;;;;4994278;28;20422;-70
2021/08/03 00:48:36;;;;;;;1.50;1.40;;;11.80;99.90;;;;;;4994198;28;20262;-69
2021/08/03 00:51:02;;;;;;;2.40;1.60;;;11.80;99.90;;;;;;4994279;28;20593;-70
2021/08/03 00:53:30;;;;;;;2.10;1.67;;;11.90;99.90;;;;;;4994248;28;20218;-70
2021/08/03 00:55:56;;;;;;;1.37;1.30;;;11.90;99.90;;;;;;4994540;28;20586;-69
2021/08/03 00:58:21;;;;;;;2.10;1.97;;;12.00;99.90;;;;;;4994283;28;20398;-70
2021/08/03 01:00:47;;;;;;;1.90;1.73;;;12.00;99.90;;;;;;4994194;28;20516;-70
2021/08/03 01:03:13;;;;;;;2.20;1.77;;;12.00;99.90;;;;;;4994233;28;20164;-70
2021/08/03 01:05:52;;;;;;;2.43;1.63;;;12.10;99.90;;;;;;4994074;28;20276;-69
2021/08/03 01:08:29;;;;;;;1.70;1.60;;;12.20;99.90;;;;;;4994120;28;20151;-70
2021/08/03 01:11:05;;;;;;;2.30;2.10;;;12.20;99.90;;;;;;4994209;28;20726;-70
2021/08/03 01:13:46;;;;;;;2.00;1.80;;;12.30;99.90;;;;;;4994096;28;20465;-70
2021/08/03 01:16:30;;;;;;;1.80;1.70;;;12.30;99.90;;;;;;4994089;28;20405;-70
2021/08/03 01:19:01;;;;;;;1.70;1.60;;;12.30;99.90;;;;;;4994243;28;20405;-70
2021/08/03 01:21:47;;;;;;;4.20;1.80;;;12.40;99.90;;;;;;4994089;28;20781;-69
2021/08/03 01:24:16;;;;;;;3.47;3.10;;;12.50;99.90;;;;;;4993974;28;20452;-70
2021/08/03 01:27:05;;;;;;;2.10;2.00;;;12.50;99.90;;;;;;4993987;28;20409;-70
2021/08/03 01:29:31;;;;;;;2.67;2.47;;;12.50;99.90;;;;;;4994106;28;20382;-70
2021/08/03 01:32:07;;;;;;;2.40;2.20;;;12.60;99.90;;;;;;4993973;28;20411;-70
2021/08/03 01:34:36;;;;;;;2.70;2.50;;;12.60;99.90;;;;;;4993851;28;20391;-70
2021/08/03 01:37:04;;;;;;;4.50;2.63;;;12.70;99.90;;;;;;4993887;28;20775;-69
2021/08/03 01:39:42;;;;;;;5.83;2.73;;;12.80;99.90;;;;;;4993927;28;20414;-70
2021/08/03 01:42:10;;;;;;;3.17;2.10;;;12.90;99.90;;;;;;4993829;28;20722;-70
2021/08/03 01:44:37;;;;;;;3.07;2.43;;;12.90;99.90;;;;;;4993726;28;20446;-70
2021/08/03 01:47:05;;;;;;;2.30;2.20;;;12.90;99.90;;;;;;4993779;28;20457;-70
2021/08/03 01:49:36;;;;;;;4.93;3.30;;;13.00;99.90;;;;;;4993619;28;20446;-70
2021/08/03 01:52:05;;;;;;;5.00;2.70;;;13.00;99.90;;;;;;4993771;28;20866;-71
2021/08/03 01:54:31;;;;;;;2.83;2.63;;;13.10;99.90;;;;;;4995396;28;20432;-70
2021/08/03 01:56:57;;;;;;;2.97;2.77;;;13.10;99.90;;;;;;4997203;28;20417;-70
2021/08/03 01:59:24;;;;;;;3.37;2.90;;;13.10;99.90;;;;;;4997105;28;20468;-70
2021/08/03 02:01:52;;;;;;;4.67;4.10;;;13.20;99.90;;;;;;4997143;28;20502;-70
2021/08/03 02:04:19;;;;;;;3.00;2.70;;;13.20;99.90;;;;;;4997047;28;20544;-70
2021/08/03 02:06:46;;;;;;;4.17;3.47;;;13.20;99.90;;;;;;4996927;28;20403;-70
2021/08/03 02:09:13;;;;;;;2.57;2.43;;;13.30;99.90;;;;;;4997258;28;20452;-70
2021/08/03 02:11:39;;;;;;;2.67;2.47;;;13.20;99.90;;;;;;4996930;28;20409;-70
2021/08/03 02:14:06;;;;;;;3.30;3.00;;;13.20;99.90;;;;;;4996931;28;20433;-69
2021/08/03 02:16:32;;;;;;;2.93;2.60;;;13.20;99.90;;;;;;4996787;28;20503;-70
2021/08/03 02:18:58;;;;;;;2.90;2.70;;;13.20;99.90;;;;;;4996789;28;20742;-70
2021/08/03 02:21:24;;;;;;;5.20;2.87;;;13.20;99.90;;;;;;4996735;28;20406;-70
2021/08/03 02:23:51;;;;;;;3.57;2.83;;;13.10;99.90;;;;;;4996705;28;20257;-70
2021/08/03 02:26:17;;;;;;;2.67;2.47;;;13.00;99.90;;;;;;4996680;28;20250;-70
2021/08/03 02:28:43;;;;;;;2.53;2.30;;;12.80;99.90;;;;;;4996803;28;20434;-70
2021/08/03 02:31:27;;;;;;;3.90;2.77;;;12.80;99.90;;;;;;4996589;28;20171;-70
2021/08/03 02:33:59;;;;;;;5.80;3.10;;;12.80;99.90;;;;;;4996556;28;20529;-69
2021/08/03 02:36:28;;;;;;;3.90;2.80;;;12.60;99.90;;;;;;4996530;28;20395;-70
2021/08/03 02:38:59;;;;;;;2.40;2.07;;;12.60;99.90;;;;;;4996700;28;20884;-70
2021/08/03 02:41:26;;;;;;;2.40;2.20;;;12.60;99.90;;;;;;4996378;28;20739;-70
2021/08/03 02:43:53;;;;;;;2.57;2.37;;;12.50;99.90;;;;;;4996353;28;20453;-69
2021/08/03 02:46:23;;;;;;;3.10;2.50;;;12.40;99.90;;;;;;4996371;28;20544;-70
2021/08/03 02:49:01;;;;;;;2.70;2.50;;;12.30;99.90;;;;;;4996125;28;20437;-70
2021/08/03 02:51:29;;;;;;;2.27;2.17;;;12.20;99.90;;;;;;4996561;28;20813;-70
2021/08/03 02:53:56;;;;;;;2.53;2.37;;;12.10;99.90;;;;;;4996191;28;20405;-70
2021/08/03 02:56:24;;;;;;;2.30;2.13;;;12.00;99.90;;;;;;4996093;28;20473;-69
2021/08/03 02:58:57;;;;;;;2.10;1.90;;;11.90;99.90;;;;;;4996137;28;20414;-69
2021/08/03 03:01:27;;;;;;;2.00;1.90;;;11.90;99.90;;;;;;4996016;28;20760;-69
2021/08/03 03:03:56;;;;;;;5.20;2.10;;;11.90;99.90;;;;;;4995925;28;20541;-69
2021/08/03 03:06:24;;;;;;;2.17;1.90;;;11.90;99.90;;;;;;4994871;28;20402;-69
2021/08/03 03:08:52;;;;;;;2.83;2.57;;;11.90;99.90;;;;;;4995897;28;20771;-69
2021/08/03 03:11:20;;;;;;;2.17;2.07;;;11.90;99.90;;;;;;4995779;28;20472;-69
2021/08/03 03:13:56;;;;;;;2.13;2.00;;;11.80;99.90;;;;;;4995788;28;20403;-69
2021/08/03 03:16:23;;;;;;;2.60;2.40;;;11.80;99.90;;;;;;4995815;28;20493;-69
2021/08/03 03:18:50;;;;;;;2.10;2.00;;;11.80;99.90;;;;;;4995622;28;20419;-69
2021/08/03 03:21:21;;;;;;;2.80;1.90;;;11.80;99.90;;;;;;4995907;28;20425;-69
2021/08/03 03:23:49;;;;;;;1.90;1.60;;;11.70;99.90;;;;;;4995630;28;20520;-69
2021/08/03 03:26:16;;;;;;;2.83;2.13;;;11.70;99.90;;;;;;4995518;28;20418;-69
2021/08/03 03:28:43;;;;;;;2.27;2.17;;;11.60;99.90;;;;;;4995556;28;20421;-69
2021/08/03 03:31:10;;;;;;;2.23;2.13;;;11.60;99.90;;;;;;4995528;28;20410;-69
2021/08/03 03:33:38;;;;;;;2.30;2.20;;;11.60;99.90;;;;;;4995392;28;20445;-69
2021/08/03 03:36:07;;;;;;;2.83;2.33;;;11.60;99.90;;;;;;4995386;28;20744;-69
2021/08/03 03:38:37;;;;;;;2.37;2.17;;;11.50;99.90;;;;;;4995378;28;20884;-69
2021/08/03 03:41:04;;;;;;;1.90;1.80;;;11.50;99.90;;;;;;4995618;28;20409;-69
2021/08/03 03:43:30;;;;;;;2.60;2.40;;;11.50;99.90;;;;;;4995164;28;20464;-69
2021/08/03 03:46:15;;;;;;;2.17;1.97;;;11.40;99.90;;;;;;4994942;28;20824;-69
2021/08/03 03:48:53;;;;;;;3.20;2.00;;;11.40;99.90;;;;;;4994993;28;20430;-69
2021/08/03 03:51:25;;;;;;;2.27;2.07;;;11.40;99.90;;;;;;4995125;28;20431;-70
2021/08/03 03:53:57;;;;;;;2.40;2.20;;;11.30;99.90;;;;;;4995153;28;20408;-69
2021/08/03 03:56:30;;;;;;;1.77;1.67;;;11.20;99.90;;;;;;4995331;28;20413;-69
2021/08/03 03:58:59;;;;;;;2.27;2.07;;;11.20;99.90;;;;;;4995631;28;20390;-69
2021/08/03 04:01:26;;;;;;;2.13;2.00;;;11.20;99.90;;;;;;4994891;28;20418;-69
2021/08/03 04:03:54;;;;;;;2.47;2.10;;;11.20;99.90;;;;;;4994756;28;20512;-69
2021/08/03 04:06:20;;;;;;;2.67;2.40;;;11.20;99.90;;;;;;4994832;28;20417;-69
2021/08/03 04:08:46;;;;;;;2.77;2.57;;;11.20;99.90;;;;;;4994739;28;20742;-69
2021/08/03 04:11:15;;;;;;;2.27;2.07;;;11.30;99.90;;;;;;4994758;28;20191;-69
2021/08/03 04:13:43;;;;;;;1.90;1.80;;;11.30;99.90;;;;;;4994680;28;20579;-69
2021/08/03 04:16:09;;;;;;;3.00;2.20;;;11.40;99.90;;;;;;4994584;28;20410;-69
2021/08/03 04:18:35;;;;;;;2.13;1.93;;;11.50;99.90;;;;;;4994450;28;20420;-69
2021/08/03 04:21:00;;;;;;;2.57;2.37;;;11.60;99.90;;;;;;4994802;28;20179;-69
2021/08/03 04:23:26;;;;;;;3.40;2.27;;;11.70;99.90;;;;;;4994425;28;20270;-69
2021/08/03 04:25:52;;;;;;;2.47;2.17;;;11.70;99.90;;;;;;4994785;28;20179;-69
2021/08/03 04:28:18;;;;;;;2.10;2.00;;;11.90;99.90;;;;;;4994548;28;20456;-69
2021/08/03 04:30:43;;;;;;;2.53;2.33;;;11.90;99.90;;;;;;4994474;28;20175;-69
2021/08/03 04:33:09;;;;;;;3.10;2.90;;;12.00;99.90;;;;;;4994481;28;20176;-69
2021/08/03 04:35:35;;;;;;;3.40;3.00;;;12.10;99.90;;;;;;4994422;28;20171;-69
2021/08/03 04:38:01;;;;;;;2.70;2.50;;;12.20;99.90;;;;;;4994438;28;20258;-69
2021/08/03 04:40:26;;;;;;;4.00;3.70;;;12.30;99.90;;;;;;4977231;28;20636;-69
2021/08/03 04:42:52;;;;;;;3.53;2.63;;;12.40;99.90;;;;;;4994405;28;20178;-69
2021/08/03 04:45:19;;;;;;;4.47;4.07;;;12.50;99.90;;;;;;4994452;28;20551;-69
2021/08/03 04:47:50;;;;;;;3.90;3.60;;;12.60;99.90;;;;;;4994284;28;20164;-69
2021/08/03 04:50:24;;;;;;;4.17;3.40;;;12.80;99.90;;;;;;4994219;28;20419;-69
2021/08/03 04:52:50;;;;;;;4.13;3.67;;;12.80;99.90;;;;;;4994324;28;20489;-69
2021/08/03 04:55:16;;;;;;;4.30;3.67;;;13.10;99.90;;;;;;4994219;28;20438;-69
2021/08/03 04:57:42;;;;;;;4.67;4.27;;;13.10;99.90;;;;;;4994452;28;20763;-70
2021/08/03 05:00:10;;;;;;;6.33;3.60;;;13.10;99.90;;;;;;4994397;28;20597;-69
2021/08/03 05:02:36;;;;;;;4.40;4.00;;;13.20;99.90;;;;;;4977159;28;20228;-69
2021/08/03 05:05:02;;;;;;;7.30;3.60;;;13.20;99.90;;;;;;4994266;28;20931;-69
2021/08/03 05:07:29;;;;;;;4.20;3.80;;;13.30;99.90;;;;;;4994143;28;20748;-69
2021/08/03 05:10:02;;;;;;;4.60;3.97;;;13.30;99.90;;;;;;4994118;28;20490;-69
2021/08/03 05:12:28;;;;;;;4.93;3.43;;;13.40;99.90;;;;;;4994258;28;20398;-70
2021/08/03 05:15:03;;;;;;;3.30;3.10;;;13.40;99.90;;;;;;4994045;28;20852;-69
2021/08/03 05:17:30;;;;;;;4.20;3.80;;;13.40;99.90;;;;;;4994104;28;20156;-69
2021/08/03 05:19:56;;;;;;;5.90;3.73;;;13.60;99.90;;;;;;4994008;28;20406;-69
2021/08/03 05:22:23;;;;;;;3.93;3.53;;;13.60;99.90;;;;;;4994000;28;20414;-69
2021/08/03 05:24:48;;;;;;;3.60;3.30;;;13.60;99.90;;;;;;4993896;28;20465;-69
2021/08/03 05:27:14;;;;;;;3.03;2.83;;;13.70;99.90;;;;;;4993922;28;20411;-69
2021/08/03 05:29:40;;;;;;;3.30;2.97;;;13.70;99.90;;;;;;4995999;28;20171;-70
2021/08/03 05:32:05;;;;;;;3.80;3.50;;;13.80;99.90;;;;;;4997759;28;20193;-70
2021/08/03 05:34:31;;;;;;;3.87;3.50;;;13.90;99.90;;;;;;4997902;28;20171;-69
2021/08/03 05:36:57;;;;;;;4.30;2.93;;;13.80;99.90;;;;;;4997537;28;20410;-69
2021/08/03 05:39:22;;;;;;;4.27;3.37;;;13.90;99.90;;;;;;4997597;28;20351;-69
2021/08/03 05:41:48;;;;;;;4.90;3.47;;;14.00;99.90;;;;;;4997619;28;20175;-69
2021/08/03 05:44:13;;;;;;;4.33;3.50;;;14.00;99.90;;;;;;4997387;28;20509;-70
2021/08/03 05:46:39;;;;;;;4.90;3.53;;;14.00;99.90;;;;;;4997348;28;20186;-70
2021/08/03 05:49:05;;;;;;;3.30;3.00;;;14.10;99.90;;;;;;4997306;28;20187;-70
2021/08/03 05:51:30;;;;;;;4.17;3.43;;;14.20;99.90;;;;;;4997335;28;20666;-70
2021/08/03 05:53:56;;;;;;;4.43;3.90;;;14.20;99.90;;;;;;4997321;28;20663;-70
2021/08/03 05:56:22;;;;;;;4.00;3.60;;;14.30;99.90;;;;;;4997189;28;20167;-70
2021/08/03 05:58:49;;;;;;;3.10;2.90;;;14.40;99.90;;;;;;4997472;28;20269;-69
2021/08/03 06:01:14;;;;;;;3.00;2.80;;;14.40;99.90;;;;;;4997163;28;20411;-69
2021/08/03 06:03:40;;;;;;;3.17;2.97;;;14.40;99.90;;;;;;4997085;28;20183;-70
2021/08/03 06:06:07;;;;;;;3.97;3.67;;;14.50;99.90;;;;;;4997188;28;20207;-70
2021/08/03 06:08:34;;;;;;;3.20;3.00;;;14.50;99.90;;;;;;4997312;28;20175;-70
2021/08/03 06:11:01;;;;;;;2.97;2.77;;;14.60;99.90;;;;;;4997031;28;20402;-69
2021/08/03 06:13:29;;;;;;;3.10;2.90;;;14.60;99.90;;;;;;4996946;28;20434;-70
2021/08/03 06:15:59;;;;;;;4.37;3.13;;;14.70;99.90;;;;;;4996940;28;20469;-70
2021/08/03 06:18:36;;;;;;;2.60;2.17;;;14.80;99.90;;;;;;4997117;28;20476;-70
2021/08/03 06:21:02;;;;;;;3.07;2.77;;;14.80;99.90;;;;;;4996891;28;20394;-70
2021/08/03 06:23:28;;;;;;;3.30;3.00;;;15.00;99.90;;;;;;4996895;28;20817;-70
2021/08/03 06:25:58;;;;;;;4.40;3.10;;;15.10;99.90;;;;;;4996756;28;20402;-70
2021/08/03 06:28:25;;;;;;;2.90;2.63;;;15.20;99.90;;;;;;4996727;28;20489;-70
2021/08/03 06:30:52;;;;;;;4.37;3.47;;;15.20;99.90;;;;;;4996645;28;20407;-71
2021/08/03 06:33:22;;;;;;;2.47;2.27;;;15.40;99.90;;;;;;4996618;28;20402;-70
2021/08/03 06:35:50;;;;;;;2.90;2.67;;;15.40;99.90;;;;;;4996618;28;20867;-70
2021/08/03 06:38:16;;;;;;;3.97;3.20;;;15.50;99.90;;;;;;4996530;28;20742;-70
2021/08/03 06:41:10;;;;;;;3.30;2.70;;;15.60;99.90;;;;;;4996193;28;20430;-70
2021/08/03 06:43:50;;;;;;;3.73;2.80;;;15.70;99.90;;;;;;4996344;28;20449;-70
2021/08/03 06:46:16;;;;;;;4.00;3.20;;;15.80;99.90;;;;;;4996415;28;20409;-70
2021/08/03 06:49:03;;;;;;;3.80;3.00;;;15.80;99.90;;;;;;4996253;28;20431;-70
2021/08/03 06:51:41;;;;;;;3.10;2.57;;;16.00;99.90;;;;;;4996350;28;20179;-70
2021/08/03 06:54:11;;;;;;;3.83;2.60;;;16.00;99.90;;;;;;4996095;28;20497;-70
2021/08/03 06:57:15;;;;;;;2.17;1.83;;;16.00;99.90;;;;;;4996452;28;20789;-70
2021/08/03 06:59:48;;;;;;;2.10;1.90;;;16.10;99.90;;;;;;4942801;28;20441;-70
2021/08/03 07:02:30;;;;;;;2.00;1.77;;;16.20;99.90;;;;;;4996094;28;20489;-70
2021/08/03 07:05:26;;;;;;;3.23;3.00;;;16.20;99.90;;;;;;4996220;28;20465;-70
2021/08/03 07:08:01;;;;;;;2.30;1.47;;;16.20;99.90;;;;;;4991323;28;20426;-70
2021/08/03 07:10:28;;;;;;;2.00;1.70;;;16.30;99.90;;;;;;4996160;28;20624;-70
2021/08/03 07:12:54;;;;;;;1.37;1.27;;;16.40;99.90;;;;;;4995837;28;20406;-70
2021/08/03 07:15:21;;;;;;;2.10;1.57;;;16.50;99.90;;;;;;4995818;28;20406;-70
2021/08/03 07:17:50;;;;;;;1.43;1.33;;;16.50;99.90;;;;;;4995812;28;20810;-70
2021/08/03 07:20:16;;;;;;;1.50;1.40;;;16.60;99.90;;;;;;4995782;28;20414;-70
2021/08/03 07:22:42;;;;;;;3.10;1.33;;;16.60;99.90;;;;;;4995657;28;20898;-71
2021/08/03 07:25:10;;;;;;;2.27;1.60;;;16.60;99.90;;;;;;4995564;28;20215;-70
2021/08/03 07:27:36;;;;;;;1.47;1.37;;;16.60;99.90;;;;;;4995608;28;20402;-70
2021/08/03 07:30:04;;;;;;;1.30;1.20;;;16.70;99.90;;;;;;4995549;28;20420;-70
2021/08/03 07:32:33;;;;;;;4.10;1.20;;;16.80;99.90;;;;;;4995459;28;20888;-70
2021/08/03 07:34:59;;;;;;;1.30;1.20;;;16.80;99.90;;;;;;4995495;28;20417;-70
2021/08/03 07:37:26;;;;;;;1.70;1.40;;;16.90;99.90;;;;;;4995479;28;20746;-70
2021/08/03 07:39:51;;;;;;;1.30;1.20;;;16.90;99.90;;;;;;4995409;28;20457;-70
2021/08/03 07:42:17;;;;;;;2.30;1.50;;;17.00;99.90;;;;;;4995327;28;20422;-70
2021/08/03 07:44:43;;;;;;;1.30;1.20;;;17.10;99.90;;;;;;4995221;28;20292;-70
2021/08/03 07:47:08;;;;;;;1.10;1.10;;;17.20;99.90;;;;;;4995230;28;20168;-70
2021/08/03 07:49:34;;;;;;;1.40;1.13;;;17.30;99.90;;;;;;4995078;28;20195;-70
2021/08/03 07:52:00;;;;;;;2.57;1.20;;;17.50;99.90;;;;;;4994583;28;20171;-70
2021/08/03 07:54:25;;;;;;;1.40;1.30;;;17.60;99.90;;;;;;4995095;28;20241;-70
2021/08/03 07:56:51;;;;;;;1.30;1.07;;;17.60;99.90;;;;;;4995111;28;20163;-70
2021/08/03 07:59:17;;;;;;;1.20;1.10;;;17.50;99.90;;;;;;4994969;28;20171;-70
2021/08/03 08:01:42;;;;;;;1.30;1.20;;;17.40;99.90;;;;;;4995275;28;20258;-70
2021/08/03 08:04:08;;;;;;;1.30;1.20;;;17.20;99.90;;;;;;4994828;28;20256;-70
2021/08/03 08:06:34;;;;;;;1.63;1.53;;;17.10;99.90;;;;;;4994897;28;20167;-70
2021/08/03 08:08:59;;;;;;;1.73;1.63;;;17.00;99.90;;;;;;4994909;28;20175;-70
2021/08/03 08:11:25;;;;;;;1.90;0.70;;;17.00;99.90;;;;;;4995059;28;20278;-70
2021/08/03 08:13:50;;;;;;;1.20;1.20;;;16.90;99.90;;;;;;4994878;28;20269;-70
2021/08/03 08:16:16;;;;;;;1.10;1.10;;;16.90;99.90;;;;;;4994830;28;20250;-70
2021/08/03 08:18:42;;;;;;;1.83;0.90;;;16.80;99.90;;;;;;4994729;28;20298;-70
2021/08/03 08:21:07;;;;;;;2.27;0.90;;;16.80;99.90;;;;;;4994722;28;20182;-70
2021/08/03 08:23:34;;;;;;;0.80;0.80;;;16.90;99.90;;;;;;4994571;28;20183;-70
2021/08/03 08:26:03;;;;;;;1.00;0.83;;;16.90;99.90;;;;;;4994620;28;20246;-70
2021/08/03 08:28:29;;;;;;;0.90;0.90;;;17.00;99.90;;;;;;4994642;28;20461;-70
2021/08/03 08:30:55;;;;;;;0.87;0.87;;;16.90;99.90;;;;;;4994572;28;20407;-70
2021/08/03 08:33:21;;;;;;;0.70;0.67;;;16.90;99.90;;;;;;4994586;28;20469;-70
2021/08/03 08:35:46;;;;;;;1.13;0.87;;;16.90;99.90;;;;;;4994697;28;20410;-70
2021/08/03 08:38:12;;;;;;;1.50;0.90;;;17.00;99.90;;;;;;4977471;28;20179;-70
2021/08/03 08:40:38;;;;;;;1.27;0.70;;;17.10;99.90;;;;;;4994659;28;20181;-70
2021/08/03 08:43:04;;;;;;;0.80;0.80;;;17.20;99.90;;;;;;4994503;28;20171;-72
2021/08/03 08:45:30;;;;;;;0.60;0.60;;;17.40;99.90;;;;;;4994306;28;20919;-70
2021/08/03 08:47:57;;;;;;;0.77;0.77;;;17.50;99.90;;;;;;4994457;28;20175;-70
2021/08/03 08:50:25;;;;;;;0.90;0.87;;;17.80;99.90;;;;;;4994326;28;20398;-70
2021/08/03 08:52:56;;;;;;;1.00;0.83;;;18.00;99.90;;;;;;4994338;28;20410;-70
2021/08/03 08:55:23;;;;;;;0.80;0.73;;;18.10;99.90;;;;;;4994328;28;20399;-70
2021/08/03 08:57:51;;;;;;;1.93;0.80;;;18.20;99.90;;;;;;4994262;28;20403;-70
2021/08/03 09:00:19;;;;;;;1.87;0.80;;;18.30;99.90;;;;;;4994283;28;20468;-70
2021/08/03 09:02:47;;;;;;;0.70;0.70;;;18.20;99.90;;;;;;4994909;28;20521;-70
2021/08/03 09:05:14;;;;;;;0.63;0.63;;;18.00;99.90;;;;;;4998165;28;20450;-70
2021/08/03 09:07:51;;;;;;;0.80;0.80;;;18.10;99.90;;;;;;4998210;28;20402;-70
2021/08/03 09:10:46;;;;;;;0.77;0.77;;;18.20;99.90;;;;;;4998248;28;20727;-70
2021/08/03 09:13:17;;;;;;;0.87;0.87;;;18.50;99.90;;;;;;4977683;28;20425;-70
2021/08/03 09:15:45;;;;;;;3.40;0.90;;;18.60;99.90;;;;;;4998095;28;20508;-70
2021/08/03 09:18:21;;;;;;;0.83;0.80;;;18.80;99.90;;;;;;4997967;28;20460;-70
2021/08/03 09:20:47;;;;;;;2.30;0.90;;;18.90;99.90;;;;;;4998254;28;20390;-69
2021/08/03 09:23:14;;;;;;;1.90;1.10;;;19.00;99.90;;;;;;4997756;28;20422;-70
2021/08/03 09:25:52;;;;;;;1.73;0.87;;;19.00;99.90;;;;;;4997786;28;20456;-70
2021/08/03 09:28:17;;;;;;;0.93;0.93;;;19.00;99.90;;;;;;4997819;28;20410;-70
2021/08/03 09:30:43;;;;;;;0.77;0.77;;;18.90;99.90;;;;;;4997790;28;20784;-70
2021/08/03 09:33:09;;;;;;;0.80;0.80;;;19.00;99.90;;;;;;4997776;28;20167;-70
2021/08/03 09:35:35;;;;;;;1.33;1.03;;;18.90;99.90;;;;;;4997798;28;20608;-70
2021/08/03 09:38:01;;;;;;;1.10;0.80;;;19.00;99.90;;;;;;4997918;28;20206;-71
2021/08/03 09:40:29;;;;;;;0.70;0.70;;;19.10;99.90;;;;;;4997517;28;20415;-70
2021/08/03 09:43:06;;;;;;;0.70;0.70;;;19.20;99.90;;;;;;4997643;28;20417;-69
2021/08/03 09:45:55;;;;;;;0.77;0.70;;;19.30;99.90;;;;;;4997718;28;20813;-71
2021/08/03 09:48:22;;;;;;;0.80;0.80;;;19.30;99.90;;;;;;4997633;28;20469;-70
2021/08/03 09:51:11;;;;;;;0.87;0.80;;;19.60;99.90;;;;;;4997552;28;20434;-71
2021/08/03 09:53:48;;;;;;;0.90;0.90;;;19.70;99.90;;;;;;4997604;28;20394;-71
2021/08/03 09:56:17;;;;;;;4.03;1.10;;;20.00;99.90;;;;;;4997316;28;20397;-70
2021/08/03 09:58:49;;;;;;;1.10;0.77;;;20.10;99.90;;;;;;4997362;28;20410;-71
2021/08/03 10:01:36;;;;;;;0.80;0.80;;;20.20;99.90;;;;;;4997439;28;20735;-72
2021/08/03 10:04:04;;;;;;;2.00;0.80;;;20.10;99.90;;;;;;4997443;28;20450;-70
2021/08/03 10:06:31;;;;;;;1.33;0.87;;;20.10;99.90;;;;;;4997636;28;20399;-70
2021/08/03 10:08:57;;;;;;;1.87;1.20;;;20.20;99.90;;;;;;4997218;28;20880;-70
2021/08/03 10:11:24;;;;;;;0.93;0.70;;;20.20;99.90;;;;;;4997431;28;20406;-70
2021/08/03 10:13:51;;;;;;;0.80;0.80;;;20.10;99.90;;;;;;4997074;28;20486;-71
2021/08/03 10:16:17;;;;;;;0.90;0.90;;;20.10;99.90;;;;;;4997125;28;20876;-70
2021/08/03 10:18:46;;;;;;;0.93;0.93;;;20.10;99.90;;;;;;4997064;28;20406;-70
2021/08/03 10:21:17;;;;;;;0.83;0.80;;;20.10;99.90;;;;;;4996920;28;20407;-70
2021/08/03 10:23:45;;;;;;;0.80;0.80;;;20.00;99.90;;;;;;4996937;28;20493;-71
2021/08/03 10:26:14;;;;;;;3.17;0.87;;;20.10;99.90;;;;;;4996937;28;20402;-70
2021/08/03 10:28:40;;;;;;;1.47;0.77;;;20.20;99.90;;;;;;4996890;28;20461;-70
2021/08/03 10:31:38;;;;;;;0.80;0.80;;;20.30;99.90;;;;;;4996832;28;20888;-71
2021/08/03 10:34:06;;;;;;;1.17;0.93;;;20.30;99.90;;;;;;4996774;28;20621;-71
2021/08/03 10:36:41;;;;;;;1.07;0.80;;;20.30;99.90;;;;;;4996676;28;20445;-72
2021/08/03 10:39:12;;;;;;;0.80;0.80;;;20.50;99.90;;;;;;4996935;28;20880;-70
2021/08/03 10:42:00;;;;;;;2.70;0.80;;;20.50;99.90;;;;;;4996732;28;20441;-70
2021/08/03 10:44:38;;;;;;;1.10;1.10;;;20.60;99.90;;;;;;4996475;28;20777;-70
2021/08/03 10:47:04;;;;;;;1.33;0.90;;;20.70;99.90;;;;;;4996548;28;20512;-70
2021/08/03 10:49:55;;;;;;;0.80;0.80;;;20.70;99.90;;;;;;4996474;28;20462;-71
2021/08/03 10:52:46;;;;;;;1.17;1.07;;;20.70;99.90;;;;;;4996544;28;20242;-70
2021/08/03 10:55:37;;;;;;;1.00;0.90;;;20.80;99.90;;;;;;4996582;28;20407;-71
2021/08/03 10:58:09;;;;;;;0.80;0.80;;;21.00;99.90;;;;;;4996536;28;20418;-70
2021/08/03 11:00:46;;;;;;;0.87;0.87;;;21.20;99.90;;;;;;4996429;28;20472;-70
2021/08/03 11:03:42;;;;;;;0.77;0.77;;;21.50;99.90;;;;;;4996359;28;20485;-70
2021/08/03 11:06:11;;;;;;;1.10;1.00;;;22.00;99.90;;;;;;4976043;28;20422;-70
2021/08/03 11:08:40;;;;;;;0.70;0.70;;;22.30;99.90;;;;;;4995989;28;20395;-70
2021/08/03 11:11:30;;;;;;;1.13;1.03;;;22.40;99.90;;;;;;4996038;28;20746;-70
2021/08/03 11:14:04;;;;;;;1.00;0.60;;;22.40;99.90;;;;;;4995846;28;20391;-70
2021/08/03 11:16:30;;;;;;;0.80;0.80;;;22.50;99.90;;;;;;4995857;28;20763;-70
2021/08/03 11:18:57;;;;;;;1.10;1.00;;;22.90;99.90;;;;;;4995769;28;20485;-70
2021/08/03 11:21:25;;;;;;;1.10;1.00;;;23.00;99.90;;;;;;4995754;28;20178;-70
2021/08/03 11:24:04;;;;;;;1.27;1.17;;;22.80;99.90;;;;;;4995607;28;20395;-70
2021/08/03 11:26:50;;;;;;;0.83;0.83;;;22.60;99.90;;;;;;4994708;28;20405;-70
2021/08/03 11:29:18;;;;;;;0.90;0.90;;;22.30;99.90;;;;;;4995826;28;20403;-70
2021/08/03 11:31:55;;;;;;;0.83;0.83;;;22.10;99.90;;;;;;4995518;28;20438;-70
2021/08/03 11:34:28;;;;;;;0.90;0.90;;;22.10;99.90;;;;;;4995782;28;20485;-70
2021/08/03 11:36:57;;;;;;;0.93;0.93;;;22.40;99.90;;;;;;4995522;28;20426;-70
2021/08/03 11:39:37;;;;;;;60.30;11.60;;;22.70;99.90;;;;;;4995634;28;20415;-70
2021/08/03 11:42:03;;;;;;;2.07;1.30;;;23.20;99.90;;;;;;4995371;28;20402;-70
2021/08/03 11:44:29;;;;;;;0.90;0.90;;;23.40;99.90;;;;;;4995273;28;20473;-70
2021/08/03 11:47:08;;;;;;;1.20;1.20;;;23.10;99.90;;;;;;4995456;28;20446;-70
2021/08/03 11:49:46;;;;;;;5.97;1.87;;;22.90;99.90;;;;;;4995111;28;20193;-70
2021/08/03 11:52:16;;;;;;;3.90;1.30;;;22.70;99.90;;;;;;4995311;28;20423;-70
2021/08/03 11:54:45;;;;;;;1.10;0.90;;;22.60;99.90;;;;;;4995338;28;20419;-70
2021/08/03 11:57:41;;;;;;;1.00;1.00;;;22.20;99.90;;;;;;4995338;28;20403;-70
2021/08/03 12:00:10;;;;;;;1.30;1.20;;;22.10;99.90;;;;;;4975869;28;20428;-70
2021/08/03 12:02:37;;;;;;;1.70;0.90;;;22.10;99.90;;;;;;4995068;28;20449;-70
2021/08/03 12:05:05;;;;;;;36.07;6.67;;;22.00;99.90;;;;;;4994906;28;20469;-70
2021/08/03 12:07:33;;;;;;;2.77;1.27;;;22.00;99.90;;;;;;4994861;28;20801;-70
2021/08/03 12:09:58;;;;;;;2.40;1.40;;;21.90;99.90;;;;;;4994905;28;20409;-70
2021/08/03 12:12:24;;;;;;;0.70;0.70;;;21.90;99.90;;;;;;4994871;28;20485;-70
2021/08/03 12:15:00;;;;;;;0.90;0.90;;;21.80;99.90;;;;;;4994838;28;20178;-70
2021/08/03 12:17:26;;;;;;;0.93;0.93;;;21.90;99.90;;;;;;4994835;28;20186;-70
2021/08/03 12:19:52;;;;;;;1.63;0.80;;;22.00;99.90;;;;;;4994754;28;20880;-70
2021/08/03 12:22:25;;;;;;;1.37;1.10;;;22.10;99.90;;;;;;4994866;28;20445;-70
2021/08/03 12:25:02;;;;;;;1.00;1.00;;;22.20;99.90;;;;;;4994798;28;20454;-70
2021/08/03 12:27:38;;;;;;;1.30;0.83;;;22.40;99.90;;;;;;4994931;28;20422;-70
2021/08/03 12:30:05;;;;;;;1.33;0.80;;;22.80;99.90;;;;;;4994606;28;20394;-70
2021/08/03 12:32:38;;;;;;;1.90;0.80;;;22.80;99.90;;;;;;4994630;28;20884;-70
2021/08/03 12:35:12;;;;;;;1.10;1.00;;;22.40;99.90;;;;;;4994582;28;20402;-70
2021/08/03 12:37:38;;;;;;;0.70;0.70;;;22.10;99.90;;;;;;4994258;28;20497;-70
2021/08/03 12:40:32;;;;;;;1.03;1.03;;;22.10;99.90;;;;;;4994422;28;20497;-69
2021/08/03 12:42:59;;;;;;;1.20;1.10;;;22.00;99.90;;;;;;4994441;28;20405;-70
2021/08/03 12:45:25;;;;;;;0.80;0.80;;;22.00;99.90;;;;;;4994568;28;20450;-70
2021/08/03 12:48:02;;;;;;;1.17;0.80;;;22.00;99.90;;;;;;4977224;28;20457;-70
2021/08/03 12:50:29;;;;;;;1.00;1.00;;;21.90;99.90;;;;;;4994325;28;20391;-70
2021/08/03 12:53:02;;;;;;;1.10;1.10;;;21.90;99.90;;;;;;4994337;28;20477;-70
2021/08/03 12:55:43;;;;;;;1.13;1.03;;;21.80;99.90;;;;;;4994621;28;20736;-70
2021/08/03 12:58:08;;;;;;;1.30;1.20;;;21.80;99.90;;;;;;4994308;28;20456;-70
2021/08/03 13:00:35;;;;;;;11.07;2.17;;;21.90;99.90;;;;;;4994233;28;20883;-70